weather.gov     
National Weather Service

Terminal Aerodrome Forecast
NWS Homepage
This page is being discontinued on March 12, 2014.
The same data is available at this site. Please update your bookmarks.
Thank you, and we apologize for the inconvenience.
Please send an email to SR-SRH.Webmaster@noaa.gov with any concerns.


Current Version
Previous Version:    01  02  03  04  05  06  07  08  09  10  11  12  13  14  15  16  17  18  19  20  21  22  23  24  25  26  27  28  29  30  
   31  32  33  34  35  36  37  38  39  40  41  42  43  
[Printable]
247
FTUS43 KGRB 231700
TAFGRB
TAF
KGRB 231722Z 2318/2418 20008G16KT P6SM BKN050
     FM231900 19009KT 6SM -SHRA BKN025 OVC040
      TEMPO 2319/2323 3SM -SHRA BR BKN025
     FM232300 19006KT 4SM -SHRA BR OVC015
     FM240100 24004KT 4SM BR BKN012
     FM240800 VRB03KT 1/2SM FG VV002
     FM241400 24003KT 5SM BR BKN008=


U.S. Dept. of Commerce
NOAA National Weather Service
1325 East West Highway
Silver Spring, MD 20910
E-mail: w-nws.webmaster@noaa.gov
Page last modified: May 16, 2007
NATIONAL WEATHER SERVICE: for Safety, for Work, for Fun - FOR LIFE